sensor_id;sensor_type;location;lat;lon;timestamp;P1;durP1;ratioP1;P2;durP2;ratioP2
43088;SDS011;28709;52.030;5.652;2022-11-20T00:02:18;13.07;;;6.37;;
43088;SDS011;28709;52.030;5.652;2022-11-20T00:04:44;15.50;;;6.43;;
43088;SDS011;28709;52.030;5.652;2022-11-20T00:07:10;10.47;;;5.80;;
43088;SDS011;28709;52.030;5.652;2022-11-20T00:09:35;11.37;;;6.03;;
43088;SDS011;28709;52.030;5.652;2022-11-20T00:12:01;14.07;;;6.20;;
43088;SDS011;28709;52.030;5.652;2022-11-20T00:14:26;15.07;;;6.47;;
43088;SDS011;28709;52.030;5.652;2022-11-20T00:16:52;15.60;;;6.47;;
43088;SDS011;28709;52.030;5.652;2022-11-20T00:19:18;19.57;;;8.30;;
43088;SDS011;28709;52.030;5.652;2022-11-20T00:21:43;16.47;;;7.47;;
43088;SDS011;28709;52.030;5.652;2022-11-20T00:24:09;18.23;;;8.23;;
43088;SDS011;28709;52.030;5.652;2022-11-20T00:26:38;19.00;;;8.03;;
43088;SDS011;28709;52.030;5.652;2022-11-20T00:29:03;14.40;;;7.13;;
43088;SDS011;28709;52.030;5.652;2022-11-20T00:31:29;15.27;;;7.37;;
43088;SDS011;28709;52.030;5.652;2022-11-20T00:33:55;17.33;;;6.30;;
43088;SDS011;28709;52.030;5.652;2022-11-20T00:36:23;15.67;;;7.20;;
43088;SDS011;28709;52.030;5.652;2022-11-20T00:38:53;15.27;;;6.87;;
43088;SDS011;28709;52.030;5.652;2022-11-20T00:41:20;13.53;;;6.60;;
43088;SDS011;28709;52.030;5.652;2022-11-20T00:43:47;15.03;;;6.70;;
43088;SDS011;28709;52.030;5.652;2022-11-20T00:46:13;13.60;;;6.43;;
43088;SDS011;28709;52.030;5.652;2022-11-20T00:48:39;11.73;;;5.67;;
43088;SDS011;28709;52.030;5.652;2022-11-20T00:51:05;14.47;;;6.77;;
43088;SDS011;28709;52.030;5.652;2022-11-20T00:53:30;15.27;;;6.33;;
43088;SDS011;28709;52.030;5.652;2022-11-20T00:55:58;16.10;;;6.20;;
43088;SDS011;28709;52.030;5.652;2022-11-20T00:58:28;13.17;;;6.23;;
43088;SDS011;28709;52.030;5.652;2022-11-20T01:03:33;12.60;;;5.90;;
43088;SDS011;28709;52.030;5.652;2022-11-20T01:06:04;12.87;;;6.97;;
43088;SDS011;28709;52.030;5.652;2022-11-20T01:08:41;19.90;;;8.87;;
43088;SDS011;28709;52.030;5.652;2022-11-20T01:11:08;16.40;;;7.90;;
43088;SDS011;28709;52.030;5.652;2022-11-20T01:13:37;20.13;;;8.20;;
43088;SDS011;28709;52.030;5.652;2022-11-20T01:18:34;14.73;;;7.00;;
43088;SDS011;28709;52.030;5.652;2022-11-20T01:21:02;13.93;;;6.60;;
43088;SDS011;28709;52.030;5.652;2022-11-20T01:23:32;12.27;;;6.33;;
43088;SDS011;28709;52.030;5.652;2022-11-20T01:26:03;11.03;;;6.00;;
43088;SDS011;28709;52.030;5.652;2022-11-20T01:28:30;10.17;;;5.73;;
43088;SDS011;28709;52.030;5.652;2022-11-20T01:30:56;13.03;;;5.43;;
43088;SDS011;28709;52.030;5.652;2022-11-20T01:33:22;13.47;;;6.10;;
43088;SDS011;28709;52.030;5.652;2022-11-20T01:35:48;10.47;;;5.10;;
43088;SDS011;28709;52.030;5.652;2022-11-20T01:38:14;8.83;;;4.23;;
43088;SDS011;28709;52.030;5.652;2022-11-20T01:40:41;11.40;;;5.07;;
43088;SDS011;28709;52.030;5.652;2022-11-20T01:43:14;10.93;;;5.67;;
43088;SDS011;28709;52.030;5.652;2022-11-20T01:51:02;7.93;;;4.32;;
43088;SDS011;28709;52.030;5.652;2022-11-20T01:53:32;10.13;;;5.23;;
43088;SDS011;28709;52.030;5.652;2022-11-20T01:56:01;8.00;;;4.53;;
43088;SDS011;28709;52.030;5.652;2022-11-20T01:58:32;10.00;;;4.67;;
43088;SDS011;28709;52.030;5.652;2022-11-20T02:01:00;10.00;;;5.13;;
43088;SDS011;28709;52.030;5.652;2022-11-20T02:03:26;8.27;;;4.47;;
43088;SDS011;28709;52.030;5.652;2022-11-20T02:06:02;10.87;;;4.67;;
43088;SDS011;28709;52.030;5.652;2022-11-20T02:08:37;10.10;;;4.10;;
43088;SDS011;28709;52.030;5.652;2022-11-20T02:11:03;11.90;;;5.10;;
43088;SDS011;28709;52.030;5.652;2022-11-20T02:13:29;9.30;;;5.17;;
43088;SDS011;28709;52.030;5.652;2022-11-20T02:16:14;10.07;;;5.47;;
43088;SDS011;28709;52.030;5.652;2022-11-20T02:18:43;11.83;;;4.77;;
43088;SDS011;28709;52.030;5.652;2022-11-20T02:26:31;11.83;;;5.67;;
43088;SDS011;28709;52.030;5.652;2022-11-20T02:29:10;10.90;;;4.27;;
43088;SDS011;28709;52.030;5.652;2022-11-20T02:31:37;8.20;;;4.40;;
43088;SDS011;28709;52.030;5.652;2022-11-20T02:34:05;9.97;;;5.07;;
43088;SDS011;28709;52.030;5.652;2022-11-20T02:36:32;10.47;;;4.90;;
43088;SDS011;28709;52.030;5.652;2022-11-20T02:39:00;8.90;;;4.57;;
43088;SDS011;28709;52.030;5.652;2022-11-20T02:41:30;9.93;;;5.03;;
43088;SDS011;28709;52.030;5.652;2022-11-20T02:44:00;11.07;;;4.87;;
43088;SDS011;28709;52.030;5.652;2022-11-20T02:46:25;11.47;;;5.87;;
43088;SDS011;28709;52.030;5.652;2022-11-20T02:48:51;12.80;;;5.57;;
43088;SDS011;28709;52.030;5.652;2022-11-20T02:51:17;13.47;;;6.63;;
43088;SDS011;28709;52.030;5.652;2022-11-20T02:53:42;11.60;;;5.03;;
43088;SDS011;28709;52.030;5.652;2022-11-20T02:56:08;10.30;;;4.80;;
43088;SDS011;28709;52.030;5.652;2022-11-20T02:58:33;10.67;;;5.00;;
43088;SDS011;28709;52.030;5.652;2022-11-20T03:00:59;10.37;;;5.53;;
43088;SDS011;28709;52.030;5.652;2022-11-20T03:03:25;11.93;;;5.07;;
43088;SDS011;28709;52.030;5.652;2022-11-20T03:05:50;11.00;;;5.30;;
43088;SDS011;28709;52.030;5.652;2022-11-20T03:08:16;10.80;;;5.07;;
43088;SDS011;28709;52.030;5.652;2022-11-20T03:10:41;9.53;;;4.97;;
43088;SDS011;28709;52.030;5.652;2022-11-20T03:13:07;9.47;;;4.93;;
43088;SDS011;28709;52.030;5.652;2022-11-20T03:15:33;9.97;;;5.20;;
43088;SDS011;28709;52.030;5.652;2022-11-20T03:18:00;10.13;;;5.37;;
43088;SDS011;28709;52.030;5.652;2022-11-20T03:20:25;10.60;;;5.67;;
43088;SDS011;28709;52.030;5.652;2022-11-20T03:22:52;10.10;;;5.13;;
43088;SDS011;28709;52.030;5.652;2022-11-20T03:25:19;8.97;;;4.83;;
43088;SDS011;28709;52.030;5.652;2022-11-20T03:27:44;10.63;;;6.10;;
43088;SDS011;28709;52.030;5.652;2022-11-20T03:30:10;7.90;;;4.10;;
43088;SDS011;28709;52.030;5.652;2022-11-20T03:32:36;8.50;;;3.57;;
43088;SDS011;28709;52.030;5.652;2022-11-20T03:35:01;9.57;;;4.13;;
43088;SDS011;28709;52.030;5.652;2022-11-20T03:37:27;9.00;;;4.67;;
43088;SDS011;28709;52.030;5.652;2022-11-20T03:39:53;10.57;;;5.40;;
43088;SDS011;28709;52.030;5.652;2022-11-20T03:42:19;12.03;;;5.03;;
43088;SDS011;28709;52.030;5.652;2022-11-20T03:45:03;9.02;;;5.13;;
43088;SDS011;28709;52.030;5.652;2022-11-20T03:47:29;12.37;;;6.40;;
43088;SDS011;28709;52.030;5.652;2022-11-20T03:49:55;9.57;;;4.97;;
43088;SDS011;28709;52.030;5.652;2022-11-20T03:52:20;10.73;;;4.93;;
43088;SDS011;28709;52.030;5.652;2022-11-20T03:54:46;11.17;;;4.77;;
43088;SDS011;28709;52.030;5.652;2022-11-20T03:57:12;9.63;;;5.37;;
43088;SDS011;28709;52.030;5.652;2022-11-20T03:59:37;11.80;;;5.47;;
43088;SDS011;28709;52.030;5.652;2022-11-20T04:02:03;11.33;;;5.23;;
43088;SDS011;28709;52.030;5.652;2022-11-20T04:04:28;15.23;;;6.77;;
43088;SDS011;28709;52.030;5.652;2022-11-20T04:06:54;12.20;;;5.77;;
43088;SDS011;28709;52.030;5.652;2022-11-20T04:09:20;10.77;;;5.53;;
43088;SDS011;28709;52.030;5.652;2022-11-20T04:11:45;12.67;;;5.10;;
43088;SDS011;28709;52.030;5.652;2022-11-20T04:14:14;12.83;;;5.97;;
43088;SDS011;28709;52.030;5.652;2022-11-20T04:16:41;17.13;;;7.57;;
43088;SDS011;28709;52.030;5.652;2022-11-20T04:19:09;11.97;;;6.00;;
43088;SDS011;28709;52.030;5.652;2022-11-20T04:21:36;12.37;;;6.20;;
43088;SDS011;28709;52.030;5.652;2022-11-20T04:24:02;9.70;;;4.90;;
43088;SDS011;28709;52.030;5.652;2022-11-20T04:26:29;11.30;;;5.40;;
43088;SDS011;28709;52.030;5.652;2022-11-20T04:28:55;11.50;;;5.60;;
43088;SDS011;28709;52.030;5.652;2022-11-20T04:31:22;12.90;;;6.97;;
43088;SDS011;28709;52.030;5.652;2022-11-20T04:33:50;9.33;;;4.93;;
43088;SDS011;28709;52.030;5.652;2022-11-20T04:36:17;12.57;;;6.33;;
43088;SDS011;28709;52.030;5.652;2022-11-20T04:38:44;11.57;;;4.87;;
43088;SDS011;28709;52.030;5.652;2022-11-20T04:41:18;13.90;;;6.07;;
43088;SDS011;28709;52.030;5.652;2022-11-20T04:43:46;9.77;;;5.53;;
43088;SDS011;28709;52.030;5.652;2022-11-20T04:46:17;11.97;;;5.93;;
43088;SDS011;28709;52.030;5.652;2022-11-20T04:48:44;11.23;;;5.00;;
43088;SDS011;28709;52.030;5.652;2022-11-20T04:51:10;10.27;;;4.43;;
43088;SDS011;28709;52.030;5.652;2022-11-20T04:53:36;10.53;;;4.83;;
43088;SDS011;28709;52.030;5.652;2022-11-20T04:56:02;7.90;;;4.33;;
43088;SDS011;28709;52.030;5.652;2022-11-20T04:58:30;10.00;;;4.70;;
43088;SDS011;28709;52.030;5.652;2022-11-20T05:01:06;10.37;;;5.40;;
43088;SDS011;28709;52.030;5.652;2022-11-20T05:03:58;13.37;;;5.33;;
43088;SDS011;28709;52.030;5.652;2022-11-20T05:06:24;12.00;;;6.00;;
43088;SDS011;28709;52.030;5.652;2022-11-20T05:08:50;13.43;;;5.60;;
43088;SDS011;28709;52.030;5.652;2022-11-20T05:11:17;9.27;;;4.67;;
43088;SDS011;28709;52.030;5.652;2022-11-20T05:13:44;10.00;;;5.27;;
43088;SDS011;28709;52.030;5.652;2022-11-20T05:16:19;11.43;;;5.70;;
43088;SDS011;28709;52.030;5.652;2022-11-20T05:18:47;9.57;;;4.73;;
43088;SDS011;28709;52.030;5.652;2022-11-20T05:21:13;10.00;;;4.77;;
43088;SDS011;28709;52.030;5.652;2022-11-20T05:23:39;9.20;;;4.43;;
43088;SDS011;28709;52.030;5.652;2022-11-20T05:26:06;11.13;;;5.10;;
43088;SDS011;28709;52.030;5.652;2022-11-20T05:28:33;12.53;;;5.13;;
43088;SDS011;28709;52.030;5.652;2022-11-20T05:33:36;10.30;;;5.47;;
43088;SDS011;28709;52.030;5.652;2022-11-20T05:36:02;10.70;;;4.63;;
43088;SDS011;28709;52.030;5.652;2022-11-20T05:38:29;8.50;;;4.87;;
43088;SDS011;28709;52.030;5.652;2022-11-20T05:40:55;8.47;;;4.40;;
43088;SDS011;28709;52.030;5.652;2022-11-20T05:43:27;10.20;;;5.57;;
43088;SDS011;28709;52.030;5.652;2022-11-20T05:45:53;13.90;;;5.00;;
43088;SDS011;28709;52.030;5.652;2022-11-20T05:48:19;9.73;;;4.93;;
43088;SDS011;28709;52.030;5.652;2022-11-20T05:50:45;9.67;;;4.80;;
43088;SDS011;28709;52.030;5.652;2022-11-20T05:53:12;8.93;;;4.83;;
43088;SDS011;28709;52.030;5.652;2022-11-20T05:55:37;10.03;;;4.80;;
43088;SDS011;28709;52.030;5.652;2022-11-20T05:58:03;10.40;;;5.30;;
43088;SDS011;28709;52.030;5.652;2022-11-20T06:00:28;11.20;;;5.30;;
43088;SDS011;28709;52.030;5.652;2022-11-20T06:02:54;7.70;;;4.43;;
43088;SDS011;28709;52.030;5.652;2022-11-20T06:05:20;9.40;;;4.57;;
43088;SDS011;28709;52.030;5.652;2022-11-20T06:07:45;10.77;;;4.90;;
43088;SDS011;28709;52.030;5.652;2022-11-20T06:10:11;8.47;;;4.70;;
43088;SDS011;28709;52.030;5.652;2022-11-20T06:12:37;10.57;;;4.97;;
43088;SDS011;28709;52.030;5.652;2022-11-20T06:15:03;8.90;;;4.40;;
43088;SDS011;28709;52.030;5.652;2022-11-20T06:17:29;10.33;;;4.67;;
43088;SDS011;28709;52.030;5.652;2022-11-20T06:19:55;13.00;;;5.70;;
43088;SDS011;28709;52.030;5.652;2022-11-20T06:22:20;12.30;;;5.40;;
43088;SDS011;28709;52.030;5.652;2022-11-20T06:24:46;12.07;;;5.43;;
43088;SDS011;28709;52.030;5.652;2022-11-20T06:27:12;8.40;;;4.13;;
43088;SDS011;28709;52.030;5.652;2022-11-20T06:29:37;13.00;;;5.10;;
43088;SDS011;28709;52.030;5.652;2022-11-20T06:32:03;11.07;;;5.13;;
43088;SDS011;28709;52.030;5.652;2022-11-20T06:34:29;10.03;;;5.00;;
43088;SDS011;28709;52.030;5.652;2022-11-20T06:36:54;10.73;;;6.10;;
43088;SDS011;28709;52.030;5.652;2022-11-20T06:39:20;13.50;;;6.40;;
43088;SDS011;28709;52.030;5.652;2022-11-20T06:41:45;11.10;;;5.77;;
43088;SDS011;28709;52.030;5.652;2022-11-20T06:44:11;12.60;;;5.90;;
43088;SDS011;28709;52.030;5.652;2022-11-20T06:46:37;19.13;;;9.07;;
43088;SDS011;28709;52.030;5.652;2022-11-20T06:49:02;15.40;;;7.00;;
43088;SDS011;28709;52.030;5.652;2022-11-20T06:51:28;18.20;;;7.97;;
43088;SDS011;28709;52.030;5.652;2022-11-20T06:53:53;13.47;;;6.37;;
43088;SDS011;28709;52.030;5.652;2022-11-20T06:56:19;14.00;;;7.17;;
43088;SDS011;28709;52.030;5.652;2022-11-20T06:58:45;14.53;;;7.03;;
43088;SDS011;28709;52.030;5.652;2022-11-20T07:01:11;22.17;;;9.47;;
43088;SDS011;28709;52.030;5.652;2022-11-20T07:03:39;14.87;;;7.70;;
43088;SDS011;28709;52.030;5.652;2022-11-20T07:06:05;20.10;;;9.40;;
43088;SDS011;28709;52.030;5.652;2022-11-20T07:08:32;19.67;;;9.10;;
43088;SDS011;28709;52.030;5.652;2022-11-20T07:11:00;18.63;;;8.03;;
43088;SDS011;28709;52.030;5.652;2022-11-20T07:13:27;18.60;;;9.17;;
43088;SDS011;28709;52.030;5.652;2022-11-20T07:15:54;16.17;;;7.83;;
43088;SDS011;28709;52.030;5.652;2022-11-20T07:18:20;15.73;;;7.60;;
43088;SDS011;28709;52.030;5.652;2022-11-20T07:20:45;17.40;;;6.60;;
43088;SDS011;28709;52.030;5.652;2022-11-20T07:23:11;14.97;;;6.57;;
43088;SDS011;28709;52.030;5.652;2022-11-20T07:25:37;17.60;;;8.67;;
43088;SDS011;28709;52.030;5.652;2022-11-20T07:28:02;16.60;;;8.03;;
43088;SDS011;28709;52.030;5.652;2022-11-20T07:30:28;15.97;;;6.77;;
43088;SDS011;28709;52.030;5.652;2022-11-20T07:32:55;13.30;;;6.50;;
43088;SDS011;28709;52.030;5.652;2022-11-20T07:35:21;13.27;;;6.60;;
43088;SDS011;28709;52.030;5.652;2022-11-20T07:37:48;14.53;;;6.83;;
43088;SDS011;28709;52.030;5.652;2022-11-20T07:40:14;12.57;;;6.97;;
43088;SDS011;28709;52.030;5.652;2022-11-20T07:42:53;15.17;;;7.60;;
43088;SDS011;28709;52.030;5.652;2022-11-20T07:45:20;16.47;;;7.83;;
43088;SDS011;28709;52.030;5.652;2022-11-20T07:47:48;20.83;;;9.63;;
43088;SDS011;28709;52.030;5.652;2022-11-20T07:50:14;16.73;;;8.23;;
43088;SDS011;28709;52.030;5.652;2022-11-20T07:52:40;18.00;;;9.10;;
43088;SDS011;28709;52.030;5.652;2022-11-20T07:55:06;26.03;;;11.17;;
43088;SDS011;28709;52.030;5.652;2022-11-20T07:57:33;20.30;;;11.50;;
43088;SDS011;28709;52.030;5.652;2022-11-20T07:59:59;24.03;;;10.67;;
43088;SDS011;28709;52.030;5.652;2022-11-20T08:02:24;22.30;;;10.27;;
43088;SDS011;28709;52.030;5.652;2022-11-20T08:04:51;23.57;;;12.63;;
43088;SDS011;28709;52.030;5.652;2022-11-20T08:07:17;18.43;;;10.03;;
43088;SDS011;28709;52.030;5.652;2022-11-20T08:09:42;19.97;;;8.90;;
43088;SDS011;28709;52.030;5.652;2022-11-20T08:12:08;15.00;;;7.77;;
43088;SDS011;28709;52.030;5.652;2022-11-20T08:15:01;14.93;;;7.75;;
43088;SDS011;28709;52.030;5.652;2022-11-20T08:17:28;17.13;;;7.37;;
43088;SDS011;28709;52.030;5.652;2022-11-20T08:19:53;25.03;;;12.10;;
43088;SDS011;28709;52.030;5.652;2022-11-20T08:22:19;16.03;;;8.37;;
43088;SDS011;28709;52.030;5.652;2022-11-20T08:24:45;19.77;;;10.15;;
43088;SDS011;28709;52.030;5.652;2022-11-20T08:27:11;25.65;;;11.75;;
43088;SDS011;28709;52.030;5.652;2022-11-20T08:29:37;32.85;;;13.88;;
43088;SDS011;28709;52.030;5.652;2022-11-20T08:32:02;35.53;;;16.08;;
43088;SDS011;28709;52.030;5.652;2022-11-20T08:34:28;30.08;;;15.02;;
43088;SDS011;28709;52.030;5.652;2022-11-20T08:36:53;30.42;;;14.98;;
43088;SDS011;28709;52.030;5.652;2022-11-20T08:39:19;26.92;;;11.45;;
43088;SDS011;28709;52.030;5.652;2022-11-20T08:41:45;21.63;;;11.73;;
43088;SDS011;28709;52.030;5.652;2022-11-20T08:44:11;21.65;;;11.73;;
43088;SDS011;28709;52.030;5.652;2022-11-20T08:46:38;27.15;;;13.40;;
43088;SDS011;28709;52.030;5.652;2022-11-20T08:49:06;23.80;;;11.95;;
43088;SDS011;28709;52.030;5.652;2022-11-20T08:51:34;22.40;;;11.60;;
43088;SDS011;28709;52.030;5.652;2022-11-20T08:54:00;24.52;;;12.05;;
43088;SDS011;28709;52.030;5.652;2022-11-20T08:56:26;23.63;;;11.57;;
43088;SDS011;28709;52.030;5.652;2022-11-20T08:58:52;25.35;;;13.27;;
43088;SDS011;28709;52.030;5.652;2022-11-20T09:01:18;22.30;;;11.82;;
43088;SDS011;28709;52.030;5.652;2022-11-20T09:03:45;28.58;;;14.27;;
43088;SDS011;28709;52.030;5.652;2022-11-20T09:06:10;22.25;;;10.93;;
43088;SDS011;28709;52.030;5.652;2022-11-20T09:08:36;23.40;;;11.57;;
43088;SDS011;28709;52.030;5.652;2022-11-20T09:11:02;20.83;;;11.23;;
43088;SDS011;28709;52.030;5.652;2022-11-20T09:13:28;21.33;;;12.27;;
43088;SDS011;28709;52.030;5.652;2022-11-20T09:18:24;25.15;;;13.40;;
43088;SDS011;28709;52.030;5.652;2022-11-20T09:20:50;24.20;;;11.80;;
43088;SDS011;28709;52.030;5.652;2022-11-20T09:23:16;25.70;;;13.48;;
43088;SDS011;28709;52.030;5.652;2022-11-20T09:25:42;25.20;;;11.18;;
43088;SDS011;28709;52.030;5.652;2022-11-20T09:28:08;24.52;;;13.05;;
43088;SDS011;28709;52.030;5.652;2022-11-20T09:30:34;27.60;;;13.38;;
43088;SDS011;28709;52.030;5.652;2022-11-20T09:33:00;21.70;;;11.70;;
43088;SDS011;28709;52.030;5.652;2022-11-20T09:35:26;23.25;;;12.85;;
43088;SDS011;28709;52.030;5.652;2022-11-20T09:37:52;22.90;;;12.30;;
43088;SDS011;28709;52.030;5.652;2022-11-20T09:40:21;17.98;;;10.82;;
43088;SDS011;28709;52.030;5.652;2022-11-20T09:46:02;20.92;;;11.85;;
43088;SDS011;28709;52.030;5.652;2022-11-20T09:57:02;22.85;;;12.27;;
43088;SDS011;28709;52.030;5.652;2022-11-20T09:59:38;25.73;;;13.10;;
43088;SDS011;28709;52.030;5.652;2022-11-20T10:04:51;21.70;;;12.35;;
43088;SDS011;28709;52.030;5.652;2022-11-20T10:07:39;28.77;;;16.00;;
43088;SDS011;28709;52.030;5.652;2022-11-20T10:15:57;36.75;;;15.70;;
43088;SDS011;28709;52.030;5.652;2022-11-20T10:18:48;28.77;;;14.70;;
43088;SDS011;28709;52.030;5.652;2022-11-20T10:21:53;27.05;;;14.15;;
43088;SDS011;28709;52.030;5.652;2022-11-20T10:30:23;26.15;;;14.80;;
43088;SDS011;28709;52.030;5.652;2022-11-20T10:32:59;27.30;;;14.05;;
43088;SDS011;28709;52.030;5.652;2022-11-20T10:35:34;24.00;;;13.80;;
43088;SDS011;28709;52.030;5.652;2022-11-20T10:38:12;26.73;;;14.02;;
43088;SDS011;28709;52.030;5.652;2022-11-20T10:40:51;26.27;;;15.02;;
43088;SDS011;28709;52.030;5.652;2022-11-20T10:43:45;33.00;;;15.98;;
43088;SDS011;28709;52.030;5.652;2022-11-20T10:46:16;27.63;;;14.40;;
43088;SDS011;28709;52.030;5.652;2022-11-20T10:48:44;24.65;;;12.75;;
43088;SDS011;28709;52.030;5.652;2022-11-20T10:51:26;26.42;;;13.45;;
43088;SDS011;28709;52.030;5.652;2022-11-20T10:56:52;29.50;;;16.17;;
43088;SDS011;28709;52.030;5.652;2022-11-20T11:01:52;25.98;;;13.93;;
43088;SDS011;28709;52.030;5.652;2022-11-20T11:04:36;25.35;;;15.23;;
43088;SDS011;28709;52.030;5.652;2022-11-20T11:07:12;27.35;;;14.18;;
43088;SDS011;28709;52.030;5.652;2022-11-20T11:09:44;31.88;;;16.65;;
43088;SDS011;28709;52.030;5.652;2022-11-20T11:12:20;31.70;;;17.13;;
43088;SDS011;28709;52.030;5.652;2022-11-20T11:14:51;33.08;;;16.75;;
43088;SDS011;28709;52.030;5.652;2022-11-20T11:17:26;30.13;;;16.35;;
43088;SDS011;28709;52.030;5.652;2022-11-20T11:20:00;32.67;;;17.35;;
43088;SDS011;28709;52.030;5.652;2022-11-20T11:22:28;30.67;;;16.60;;
43088;SDS011;28709;52.030;5.652;2022-11-20T11:24:55;25.98;;;15.13;;
43088;SDS011;28709;52.030;5.652;2022-11-20T11:27:21;27.75;;;15.18;;
43088;SDS011;28709;52.030;5.652;2022-11-20T11:29:46;28.75;;;16.60;;
43088;SDS011;28709;52.030;5.652;2022-11-20T11:34:38;30.52;;;17.08;;
43088;SDS011;28709;52.030;5.652;2022-11-20T11:37:03;31.65;;;17.40;;
43088;SDS011;28709;52.030;5.652;2022-11-20T11:39:31;33.85;;;19.02;;
43088;SDS011;28709;52.030;5.652;2022-11-20T11:41:58;34.10;;;18.13;;
43088;SDS011;28709;52.030;5.652;2022-11-20T11:44:27;35.92;;;17.38;;
43088;SDS011;28709;52.030;5.652;2022-11-20T11:47:24;34.63;;;17.92;;
43088;SDS011;28709;52.030;5.652;2022-11-20T11:52:43;31.48;;;16.75;;
43088;SDS011;28709;52.030;5.652;2022-11-20T11:55:36;34.65;;;18.23;;
43088;SDS011;28709;52.030;5.652;2022-11-20T11:58:10;31.58;;;17.67;;
43088;SDS011;28709;52.030;5.652;2022-11-20T12:01:04;28.88;;;15.13;;
43088;SDS011;28709;52.030;5.652;2022-11-20T12:03:36;31.67;;;16.90;;
43088;SDS011;28709;52.030;5.652;2022-11-20T12:06:16;37.65;;;18.90;;
43088;SDS011;28709;52.030;5.652;2022-11-20T12:11:15;30.83;;;17.83;;
43088;SDS011;28709;52.030;5.652;2022-11-20T12:14:26;35.22;;;19.88;;
43088;SDS011;28709;52.030;5.652;2022-11-20T12:16:59;35.35;;;18.13;;
43088;SDS011;28709;52.030;5.652;2022-11-20T12:19:26;34.45;;;17.48;;
43088;SDS011;28709;52.030;5.652;2022-11-20T12:24:49;31.80;;;17.83;;
43088;SDS011;28709;52.030;5.652;2022-11-20T12:27:39;36.60;;;18.63;;
43088;SDS011;28709;52.030;5.652;2022-11-20T12:35:39;36.17;;;18.98;;
43088;SDS011;28709;52.030;5.652;2022-11-20T12:50:07;35.15;;;17.73;;
43088;SDS011;28709;52.030;5.652;2022-11-20T12:57:58;31.20;;;17.20;;
43088;SDS011;28709;52.030;5.652;2022-11-20T13:00:35;30.70;;;18.52;;
43088;SDS011;28709;52.030;5.652;2022-11-20T13:03:17;34.60;;;20.05;;
43088;SDS011;28709;52.030;5.652;2022-11-20T13:06:04;30.83;;;16.65;;
43088;SDS011;28709;52.030;5.652;2022-11-20T13:08:47;30.05;;;15.27;;
43088;SDS011;28709;52.030;5.652;2022-11-20T13:14:11;31.60;;;16.58;;
43088;SDS011;28709;52.030;5.652;2022-11-20T13:16:57;33.35;;;17.33;;
43088;SDS011;28709;52.030;5.652;2022-11-20T13:19:46;32.92;;;16.40;;
43088;SDS011;28709;52.030;5.652;2022-11-20T13:22:52;32.13;;;17.10;;
43088;SDS011;28709;52.030;5.652;2022-11-20T13:25:24;32.17;;;16.80;;
43088;SDS011;28709;52.030;5.652;2022-11-20T13:27:51;37.33;;;19.77;;
43088;SDS011;28709;52.030;5.652;2022-11-20T13:30:19;38.70;;;17.70;;
43088;SDS011;28709;52.030;5.652;2022-11-20T13:35:27;34.95;;;19.05;;
43088;SDS011;28709;52.030;5.652;2022-11-20T13:38:06;32.30;;;17.63;;
43088;SDS011;28709;52.030;5.652;2022-11-20T13:40:50;41.10;;;19.17;;
43088;SDS011;28709;52.030;5.652;2022-11-20T13:43:46;35.40;;;17.98;;
43088;SDS011;28709;52.030;5.652;2022-11-20T13:46:13;44.28;;;18.88;;
43088;SDS011;28709;52.030;5.652;2022-11-20T14:01:44;35.00;;;18.92;;
43088;SDS011;28709;52.030;5.652;2022-11-20T14:04:14;36.47;;;18.25;;
43088;SDS011;28709;52.030;5.652;2022-11-20T14:06:45;40.78;;;21.70;;
43088;SDS011;28709;52.030;5.652;2022-11-20T14:09:13;40.58;;;19.58;;
43088;SDS011;28709;52.030;5.652;2022-11-20T14:11:51;42.28;;;20.88;;
43088;SDS011;28709;52.030;5.652;2022-11-20T14:14:18;39.38;;;19.77;;
43088;SDS011;28709;52.030;5.652;2022-11-20T14:16:46;37.95;;;20.33;;
43088;SDS011;28709;52.030;5.652;2022-11-20T14:19:28;36.30;;;19.73;;
43088;SDS011;28709;52.030;5.652;2022-11-20T14:24:44;35.20;;;19.60;;
43088;SDS011;28709;52.030;5.652;2022-11-20T14:27:14;44.88;;;21.95;;
43088;SDS011;28709;52.030;5.652;2022-11-20T14:29:45;52.08;;;25.15;;
43088;SDS011;28709;52.030;5.652;2022-11-20T14:32:16;40.28;;;20.30;;
43088;SDS011;28709;52.030;5.652;2022-11-20T14:34:44;46.00;;;22.63;;
43088;SDS011;28709;52.030;5.652;2022-11-20T14:37:13;39.70;;;20.35;;
43088;SDS011;28709;52.030;5.652;2022-11-20T14:39:49;37.67;;;19.15;;
43088;SDS011;28709;52.030;5.652;2022-11-20T14:42:20;43.85;;;21.30;;
43088;SDS011;28709;52.030;5.652;2022-11-20T14:44:56;37.22;;;18.38;;
43088;SDS011;28709;52.030;5.652;2022-11-20T14:47:24;37.88;;;20.13;;
43088;SDS011;28709;52.030;5.652;2022-11-20T14:49:52;45.20;;;22.73;;
43088;SDS011;28709;52.030;5.652;2022-11-20T14:52:20;52.13;;;23.23;;
43088;SDS011;28709;52.030;5.652;2022-11-20T14:54:51;49.40;;;23.10;;
43088;SDS011;28709;52.030;5.652;2022-11-20T14:57:21;54.65;;;25.08;;
43088;SDS011;28709;52.030;5.652;2022-11-20T15:02:32;45.45;;;22.35;;
43088;SDS011;28709;52.030;5.652;2022-11-20T15:04:59;52.28;;;26.00;;
43088;SDS011;28709;52.030;5.652;2022-11-20T15:07:30;43.95;;;21.73;;
43088;SDS011;28709;52.030;5.652;2022-11-20T15:10:06;55.95;;;25.30;;
43088;SDS011;28709;52.030;5.652;2022-11-20T15:12:35;49.45;;;24.83;;
43088;SDS011;28709;52.030;5.652;2022-11-20T15:15:05;51.80;;;24.10;;
43088;SDS011;28709;52.030;5.652;2022-11-20T15:17:35;56.38;;;25.45;;
43088;SDS011;28709;52.030;5.652;2022-11-20T15:20:03;50.05;;;22.70;;
43088;SDS011;28709;52.030;5.652;2022-11-20T15:22:36;54.07;;;25.73;;
43088;SDS011;28709;52.030;5.652;2022-11-20T15:25:04;45.85;;;24.20;;
43088;SDS011;28709;52.030;5.652;2022-11-20T15:27:37;54.83;;;23.83;;
43088;SDS011;28709;52.030;5.652;2022-11-20T15:30:05;50.38;;;24.52;;
43088;SDS011;28709;52.030;5.652;2022-11-20T15:32:39;62.78;;;27.33;;
43088;SDS011;28709;52.030;5.652;2022-11-20T15:35:04;51.38;;;23.88;;
43088;SDS011;28709;52.030;5.652;2022-11-20T15:37:30;51.28;;;23.90;;
43088;SDS011;28709;52.030;5.652;2022-11-20T15:39:56;62.90;;;25.80;;
43088;SDS011;28709;52.030;5.652;2022-11-20T15:42:21;51.08;;;24.52;;
43088;SDS011;28709;52.030;5.652;2022-11-20T15:44:47;64.35;;;27.40;;
43088;SDS011;28709;52.030;5.652;2022-11-20T15:47:13;53.85;;;24.88;;
43088;SDS011;28709;52.030;5.652;2022-11-20T15:49:38;57.22;;;27.17;;
43088;SDS011;28709;52.030;5.652;2022-11-20T15:52:04;43.90;;;22.45;;
43088;SDS011;28709;52.030;5.652;2022-11-20T15:54:29;55.03;;;25.35;;
43088;SDS011;28709;52.030;5.652;2022-11-20T15:56:55;51.50;;;24.75;;
43088;SDS011;28709;52.030;5.652;2022-11-20T15:59:21;43.35;;;22.05;;
43088;SDS011;28709;52.030;5.652;2022-11-20T16:01:46;46.55;;;21.88;;
43088;SDS011;28709;52.030;5.652;2022-11-20T16:04:13;50.97;;;22.88;;
43088;SDS011;28709;52.030;5.652;2022-11-20T16:06:40;47.90;;;23.38;;
43088;SDS011;28709;52.030;5.652;2022-11-20T16:09:06;43.22;;;21.02;;
43088;SDS011;28709;52.030;5.652;2022-11-20T16:11:32;40.53;;;21.65;;
43088;SDS011;28709;52.030;5.652;2022-11-20T16:14:00;43.25;;;20.45;;
43088;SDS011;28709;52.030;5.652;2022-11-20T16:16:44;48.17;;;23.48;;
43088;SDS011;28709;52.030;5.652;2022-11-20T16:19:10;37.85;;;19.02;;
43088;SDS011;28709;52.030;5.652;2022-11-20T16:21:37;38.78;;;19.58;;
43088;SDS011;28709;52.030;5.652;2022-11-20T16:24:05;39.22;;;19.15;;
43088;SDS011;28709;52.030;5.652;2022-11-20T16:26:31;34.78;;;18.23;;
43088;SDS011;28709;52.030;5.652;2022-11-20T16:28:58;37.25;;;18.42;;
43088;SDS011;28709;52.030;5.652;2022-11-20T16:31:25;31.70;;;17.08;;
43088;SDS011;28709;52.030;5.652;2022-11-20T16:33:54;27.25;;;15.80;;